sensor_id;sensor_type;location;lat;lon;timestamp;P1;durP1;ratioP1;P2;durP2;ratioP2
3423;SDS011;72707;50.120;8.500;2023-10-13T00:02:06;13.23;;;9.00;;
3423;SDS011;72707;50.120;8.500;2023-10-13T00:04:32;14.50;;;9.37;;
3423;SDS011;72707;50.120;8.500;2023-10-13T00:07:01;17.97;;;10.17;;
3423;SDS011;72707;50.120;8.500;2023-10-13T00:09:27;15.77;;;9.70;;
3423;SDS011;72707;50.120;8.500;2023-10-13T00:12:02;16.63;;;9.77;;
3423;SDS011;72707;50.120;8.500;2023-10-13T00:14:29;19.90;;;10.63;;
3423;SDS011;72707;50.120;8.500;2023-10-13T00:17:07;15.80;;;10.57;;
3423;SDS011;72707;50.120;8.500;2023-10-13T00:19:34;17.97;;;9.83;;
3423;SDS011;72707;50.120;8.500;2023-10-13T00:22:10;17.17;;;9.97;;
3423;SDS011;72707;50.120;8.500;2023-10-13T00:24:38;16.20;;;10.80;;
3423;SDS011;72707;50.120;8.500;2023-10-13T00:27:11;17.10;;;9.97;;
3423;SDS011;72707;50.120;8.500;2023-10-13T00:29:52;19.57;;;10.13;;
3423;SDS011;72707;50.120;8.500;2023-10-13T00:32:38;15.17;;;9.53;;
3423;SDS011;72707;50.120;8.500;2023-10-13T00:35:05;15.53;;;9.57;;
3423;SDS011;72707;50.120;8.500;2023-10-13T00:37:31;15.53;;;9.47;;
3423;SDS011;72707;50.120;8.500;2023-10-13T00:40:06;13.00;;;9.83;;
3423;SDS011;72707;50.120;8.500;2023-10-13T00:42:43;15.30;;;9.90;;
3423;SDS011;72707;50.120;8.500;2023-10-13T00:45:17;15.40;;;9.50;;
3423;SDS011;72707;50.120;8.500;2023-10-13T00:47:44;14.43;;;9.20;;
3423;SDS011;72707;50.120;8.500;2023-10-13T00:50:21;18.07;;;10.40;;
3423;SDS011;72707;50.120;8.500;2023-10-13T00:52:49;14.60;;;9.23;;
3423;SDS011;72707;50.120;8.500;2023-10-13T00:55:15;13.60;;;9.10;;
3423;SDS011;72707;50.120;8.500;2023-10-13T00:57:48;13.50;;;9.10;;
3423;SDS011;72707;50.120;8.500;2023-10-13T01:00:18;17.23;;;9.47;;
3423;SDS011;72707;50.120;8.500;2023-10-13T01:02:45;15.53;;;9.23;;
3423;SDS011;72707;50.120;8.500;2023-10-13T01:05:19;17.43;;;9.37;;
3423;SDS011;72707;50.120;8.500;2023-10-13T01:07:46;14.23;;;9.00;;
3423;SDS011;72707;50.120;8.500;2023-10-13T01:10:17;18.83;;;9.40;;
3423;SDS011;72707;50.120;8.500;2023-10-13T01:12:44;18.17;;;8.53;;
3423;SDS011;72707;50.120;8.500;2023-10-13T01:15:17;13.40;;;8.67;;
3423;SDS011;72707;50.120;8.500;2023-10-13T01:17:46;14.40;;;8.67;;
3423;SDS011;72707;50.120;8.500;2023-10-13T01:20:15;14.57;;;9.07;;
3423;SDS011;72707;50.120;8.500;2023-10-13T01:22:50;12.77;;;8.57;;
3423;SDS011;72707;50.120;8.500;2023-10-13T01:25:24;12.37;;;8.93;;
3423;SDS011;72707;50.120;8.500;2023-10-13T01:27:53;15.47;;;8.40;;
3423;SDS011;72707;50.120;8.500;2023-10-13T01:30:19;13.97;;;8.30;;
3423;SDS011;72707;50.120;8.500;2023-10-13T01:32:50;14.30;;;8.50;;
3423;SDS011;72707;50.120;8.500;2023-10-13T01:35:17;11.80;;;8.57;;
3423;SDS011;72707;50.120;8.500;2023-10-13T01:38:00;16.83;;;8.53;;
3423;SDS011;72707;50.120;8.500;2023-10-13T01:40:26;12.73;;;7.97;;
3423;SDS011;72707;50.120;8.500;2023-10-13T01:42:54;14.43;;;8.40;;
3423;SDS011;72707;50.120;8.500;2023-10-13T01:45:20;17.57;;;9.27;;
3423;SDS011;72707;50.120;8.500;2023-10-13T01:47:46;13.53;;;8.30;;
3423;SDS011;72707;50.120;8.500;2023-10-13T01:50:15;16.50;;;9.03;;
3423;SDS011;72707;50.120;8.500;2023-10-13T01:52:55;14.87;;;8.43;;
3423;SDS011;72707;50.120;8.500;2023-10-13T01:55:37;12.97;;;8.00;;
3423;SDS011;72707;50.120;8.500;2023-10-13T01:58:08;15.97;;;8.33;;
3423;SDS011;72707;50.120;8.500;2023-10-13T02:00:44;14.43;;;7.87;;
3423;SDS011;72707;50.120;8.500;2023-10-13T02:03:12;14.97;;;8.60;;
3423;SDS011;72707;50.120;8.500;2023-10-13T02:05:45;12.27;;;7.77;;
3423;SDS011;72707;50.120;8.500;2023-10-13T02:08:15;14.33;;;7.53;;
3423;SDS011;72707;50.120;8.500;2023-10-13T02:13:16;13.53;;;7.57;;
3423;SDS011;72707;50.120;8.500;2023-10-13T02:15:43;14.67;;;7.57;;
3423;SDS011;72707;50.120;8.500;2023-10-13T02:18:12;12.63;;;8.03;;
3423;SDS011;72707;50.120;8.500;2023-10-13T02:21:06;10.90;;;7.13;;
3423;SDS011;72707;50.120;8.500;2023-10-13T02:23:38;9.93;;;7.43;;
3423;SDS011;72707;50.120;8.500;2023-10-13T02:26:09;11.60;;;8.20;;
3423;SDS011;72707;50.120;8.500;2023-10-13T02:28:40;14.53;;;8.30;;
3423;SDS011;72707;50.120;8.500;2023-10-13T02:31:06;10.93;;;8.23;;
3423;SDS011;72707;50.120;8.500;2023-10-13T02:33:33;10.13;;;8.00;;
3423;SDS011;72707;50.120;8.500;2023-10-13T02:36:00;9.80;;;6.80;;
3423;SDS011;72707;50.120;8.500;2023-10-13T02:38:30;9.90;;;6.93;;
3423;SDS011;72707;50.120;8.500;2023-10-13T02:41:14;11.73;;;7.27;;
3423;SDS011;72707;50.120;8.500;2023-10-13T02:43:54;13.27;;;7.43;;
3423;SDS011;72707;50.120;8.500;2023-10-13T02:46:20;11.00;;;7.60;;
3423;SDS011;72707;50.120;8.500;2023-10-13T02:48:47;13.37;;;7.93;;
3423;SDS011;72707;50.120;8.500;2023-10-13T02:51:18;12.27;;;7.20;;
3423;SDS011;72707;50.120;8.500;2023-10-13T02:53:47;14.30;;;7.60;;
3423;SDS011;72707;50.120;8.500;2023-10-13T02:56:13;11.47;;;7.43;;
3423;SDS011;72707;50.120;8.500;2023-10-13T02:58:45;14.33;;;8.93;;
3423;SDS011;72707;50.120;8.500;2023-10-13T03:01:18;14.17;;;7.43;;
3423;SDS011;72707;50.120;8.500;2023-10-13T03:03:49;11.70;;;8.27;;
3423;SDS011;72707;50.120;8.500;2023-10-13T03:06:23;11.17;;;7.03;;
3423;SDS011;72707;50.120;8.500;2023-10-13T03:08:57;11.63;;;8.00;;
3423;SDS011;72707;50.120;8.500;2023-10-13T03:11:40;14.53;;;7.50;;
3423;SDS011;72707;50.120;8.500;2023-10-13T03:14:13;10.83;;;7.37;;
3423;SDS011;72707;50.120;8.500;2023-10-13T03:16:58;11.00;;;7.13;;
3423;SDS011;72707;50.120;8.500;2023-10-13T03:19:30;11.10;;;6.70;;
3423;SDS011;72707;50.120;8.500;2023-10-13T03:22:03;15.83;;;7.93;;
3423;SDS011;72707;50.120;8.500;2023-10-13T03:24:37;10.27;;;6.90;;
3423;SDS011;72707;50.120;8.500;2023-10-13T03:27:18;12.80;;;7.90;;
3423;SDS011;72707;50.120;8.500;2023-10-13T03:29:48;13.23;;;7.47;;
3423;SDS011;72707;50.120;8.500;2023-10-13T03:32:21;11.53;;;7.10;;
3423;SDS011;72707;50.120;8.500;2023-10-13T03:34:47;12.13;;;6.93;;
3423;SDS011;72707;50.120;8.500;2023-10-13T03:37:25;12.23;;;7.83;;
3423;SDS011;72707;50.120;8.500;2023-10-13T03:40:03;13.10;;;8.20;;
3423;SDS011;72707;50.120;8.500;2023-10-13T03:42:54;14.77;;;8.47;;
3423;SDS011;72707;50.120;8.500;2023-10-13T03:48:04;9.20;;;7.13;;
3423;SDS011;72707;50.120;8.500;2023-10-13T03:50:34;12.87;;;7.20;;
3423;SDS011;72707;50.120;8.500;2023-10-13T03:53:13;8.93;;;6.63;;
3423;SDS011;72707;50.120;8.500;2023-10-13T03:55:39;10.67;;;6.67;;
3423;SDS011;72707;50.120;8.500;2023-10-13T03:58:12;14.33;;;7.13;;
3423;SDS011;72707;50.120;8.500;2023-10-13T04:00:39;12.77;;;6.77;;
3423;SDS011;72707;50.120;8.500;2023-10-13T04:03:08;12.23;;;7.27;;
3423;SDS011;72707;50.120;8.500;2023-10-13T04:05:34;12.80;;;7.17;;
3423;SDS011;72707;50.120;8.500;2023-10-13T04:08:25;11.40;;;7.73;;
3423;SDS011;72707;50.120;8.500;2023-10-13T04:10:55;10.13;;;7.00;;
3423;SDS011;72707;50.120;8.500;2023-10-13T04:13:41;13.37;;;6.73;;
3423;SDS011;72707;50.120;8.500;2023-10-13T04:16:26;11.17;;;6.90;;
3423;SDS011;72707;50.120;8.500;2023-10-13T04:18:51;10.90;;;7.50;;
3423;SDS011;72707;50.120;8.500;2023-10-13T04:21:22;14.07;;;7.03;;
3423;SDS011;72707;50.120;8.500;2023-10-13T04:24:04;11.47;;;7.47;;
3423;SDS011;72707;50.120;8.500;2023-10-13T04:26:52;10.83;;;7.30;;
3423;SDS011;72707;50.120;8.500;2023-10-13T04:29:36;11.40;;;7.73;;
3423;SDS011;72707;50.120;8.500;2023-10-13T04:32:21;10.17;;;7.10;;
3423;SDS011;72707;50.120;8.500;2023-10-13T04:34:58;11.77;;;7.47;;
3423;SDS011;72707;50.120;8.500;2023-10-13T04:37:40;8.93;;;7.13;;
3423;SDS011;72707;50.120;8.500;2023-10-13T04:40:25;12.73;;;7.77;;
3423;SDS011;72707;50.120;8.500;2023-10-13T04:42:54;15.37;;;8.50;;
3423;SDS011;72707;50.120;8.500;2023-10-13T04:45:29;13.30;;;7.77;;
3423;SDS011;72707;50.120;8.500;2023-10-13T04:47:54;12.57;;;8.23;;
3423;SDS011;72707;50.120;8.500;2023-10-13T04:50:38;14.60;;;7.83;;
3423;SDS011;72707;50.120;8.500;2023-10-13T04:53:16;10.83;;;8.23;;
3423;SDS011;72707;50.120;8.500;2023-10-13T04:55:55;15.63;;;9.03;;
3423;SDS011;72707;50.120;8.500;2023-10-13T04:58:44;13.77;;;8.83;;
3423;SDS011;72707;50.120;8.500;2023-10-13T05:01:29;13.03;;;8.23;;
3423;SDS011;72707;50.120;8.500;2023-10-13T05:03:54;13.80;;;8.97;;
3423;SDS011;72707;50.120;8.500;2023-10-13T05:06:38;17.70;;;9.33;;
3423;SDS011;72707;50.120;8.500;2023-10-13T05:09:24;19.50;;;9.63;;
3423;SDS011;72707;50.120;8.500;2023-10-13T05:12:08;17.57;;;8.63;;
3423;SDS011;72707;50.120;8.500;2023-10-13T05:14:52;17.93;;;8.40;;
3423;SDS011;72707;50.120;8.500;2023-10-13T05:17:36;15.17;;;7.87;;
3423;SDS011;72707;50.120;8.500;2023-10-13T05:20:20;17.23;;;9.50;;
3423;SDS011;72707;50.120;8.500;2023-10-13T05:23:04;15.07;;;9.23;;
3423;SDS011;72707;50.120;8.500;2023-10-13T05:25:49;15.47;;;8.40;;
3423;SDS011;72707;50.120;8.500;2023-10-13T05:28:33;19.53;;;10.87;;
3423;SDS011;72707;50.120;8.500;2023-10-13T05:31:17;15.27;;;10.20;;
3423;SDS011;72707;50.120;8.500;2023-10-13T05:34:01;15.67;;;9.63;;
3423;SDS011;72707;50.120;8.500;2023-10-13T05:36:46;18.30;;;10.43;;
3423;SDS011;72707;50.120;8.500;2023-10-13T05:39:30;18.67;;;10.20;;
3423;SDS011;72707;50.120;8.500;2023-10-13T05:42:14;16.73;;;10.47;;
3423;SDS011;72707;50.120;8.500;2023-10-13T05:44:58;19.57;;;10.73;;
3423;SDS011;72707;50.120;8.500;2023-10-13T05:47:38;21.37;;;10.83;;
3423;SDS011;72707;50.120;8.500;2023-10-13T05:50:07;21.17;;;11.83;;
3423;SDS011;72707;50.120;8.500;2023-10-13T05:52:48;19.10;;;10.47;;
3423;SDS011;72707;50.120;8.500;2023-10-13T05:55:22;23.73;;;11.67;;
3423;SDS011;72707;50.120;8.500;2023-10-13T05:58:09;29.93;;;11.80;;
3423;SDS011;72707;50.120;8.500;2023-10-13T06:00:53;21.53;;;10.93;;
3423;SDS011;72707;50.120;8.500;2023-10-13T06:03:37;28.93;;;10.87;;
3423;SDS011;72707;50.120;8.500;2023-10-13T06:06:21;27.97;;;11.53;;
3423;SDS011;72707;50.120;8.500;2023-10-13T06:09:06;23.53;;;10.13;;
3423;SDS011;72707;50.120;8.500;2023-10-13T06:11:50;19.70;;;9.40;;
3423;SDS011;72707;50.120;8.500;2023-10-13T06:14:34;19.10;;;9.37;;
3423;SDS011;72707;50.120;8.500;2023-10-13T06:17:18;19.10;;;9.07;;
3423;SDS011;72707;50.120;8.500;2023-10-13T06:20:02;20.70;;;10.53;;
3423;SDS011;72707;50.120;8.500;2023-10-13T06:22:47;18.87;;;9.03;;
3423;SDS011;72707;50.120;8.500;2023-10-13T06:25:31;20.17;;;9.23;;
3423;SDS011;72707;50.120;8.500;2023-10-13T06:28:15;15.87;;;7.93;;
3423;SDS011;72707;50.120;8.500;2023-10-13T06:30:59;14.17;;;8.67;;
3423;SDS011;72707;50.120;8.500;2023-10-13T06:33:26;18.53;;;8.93;;
3423;SDS011;72707;50.120;8.500;2023-10-13T06:35:55;17.63;;;9.20;;
3423;SDS011;72707;50.120;8.500;2023-10-13T06:38:22;16.63;;;7.90;;
3423;SDS011;72707;50.120;8.500;2023-10-13T06:40:47;17.67;;;9.43;;
3423;SDS011;72707;50.120;8.500;2023-10-13T06:43:15;18.60;;;9.10;;
3423;SDS011;72707;50.120;8.500;2023-10-13T06:45:45;18.07;;;8.73;;
3423;SDS011;72707;50.120;8.500;2023-10-13T06:48:21;16.67;;;8.50;;
3423;SDS011;72707;50.120;8.500;2023-10-13T06:50:48;13.33;;;8.03;;
3423;SDS011;72707;50.120;8.500;2023-10-13T06:53:14;14.70;;;9.03;;
3423;SDS011;72707;50.120;8.500;2023-10-13T06:55:41;20.20;;;9.47;;
3423;SDS011;72707;50.120;8.500;2023-10-13T06:58:11;13.50;;;8.70;;
3423;SDS011;72707;50.120;8.500;2023-10-13T07:00:39;12.87;;;7.73;;
3423;SDS011;72707;50.120;8.500;2023-10-13T07:03:17;18.87;;;9.07;;
3423;SDS011;72707;50.120;8.500;2023-10-13T07:05:44;13.57;;;8.23;;
3423;SDS011;72707;50.120;8.500;2023-10-13T07:08:12;18.03;;;8.60;;
3423;SDS011;72707;50.120;8.500;2023-10-13T07:10:46;15.30;;;7.87;;
3423;SDS011;72707;50.120;8.500;2023-10-13T07:13:38;12.67;;;8.70;;
3423;SDS011;72707;50.120;8.500;2023-10-13T07:16:04;17.27;;;8.67;;
3423;SDS011;72707;50.120;8.500;2023-10-13T07:18:37;12.00;;;7.30;;
3423;SDS011;72707;50.120;8.500;2023-10-13T07:21:14;11.53;;;7.17;;
3423;SDS011;72707;50.120;8.500;2023-10-13T07:23:40;8.80;;;6.30;;
3423;SDS011;72707;50.120;8.500;2023-10-13T07:26:10;14.73;;;6.87;;
3423;SDS011;72707;50.120;8.500;2023-10-13T07:28:37;25.30;;;9.17;;
3423;SDS011;72707;50.120;8.500;2023-10-13T07:31:08;16.73;;;7.23;;
3423;SDS011;72707;50.120;8.500;2023-10-13T07:33:37;15.27;;;6.50;;
3423;SDS011;72707;50.120;8.500;2023-10-13T07:36:06;8.07;;;5.97;;
3423;SDS011;72707;50.120;8.500;2023-10-13T07:38:51;12.60;;;6.80;;
3423;SDS011;72707;50.120;8.500;2023-10-13T07:41:35;18.37;;;7.83;;
3423;SDS011;72707;50.120;8.500;2023-10-13T07:44:01;18.83;;;7.27;;
3423;SDS011;72707;50.120;8.500;2023-10-13T07:46:29;18.13;;;7.83;;
3423;SDS011;72707;50.120;8.500;2023-10-13T07:48:58;14.00;;;7.37;;
3423;SDS011;72707;50.120;8.500;2023-10-13T07:51:34;15.77;;;7.73;;
3423;SDS011;72707;50.120;8.500;2023-10-13T07:54:09;13.93;;;7.20;;
3423;SDS011;72707;50.120;8.500;2023-10-13T07:56:48;18.03;;;7.87;;
3423;SDS011;72707;50.120;8.500;2023-10-13T07:59:13;17.83;;;7.67;;
3423;SDS011;72707;50.120;8.500;2023-10-13T08:01:42;16.43;;;7.20;;
3423;SDS011;72707;50.120;8.500;2023-10-13T08:04:08;15.17;;;7.77;;
3423;SDS011;72707;50.120;8.500;2023-10-13T08:06:37;14.77;;;7.10;;
3423;SDS011;72707;50.120;8.500;2023-10-13T08:09:06;16.10;;;7.17;;
3423;SDS011;72707;50.120;8.500;2023-10-13T08:11:55;13.70;;;7.03;;
3423;SDS011;72707;50.120;8.500;2023-10-13T08:14:21;19.97;;;7.53;;
3423;SDS011;72707;50.120;8.500;2023-10-13T08:16:54;18.17;;;7.80;;
3423;SDS011;72707;50.120;8.500;2023-10-13T08:19:25;15.20;;;7.67;;
3423;SDS011;72707;50.120;8.500;2023-10-13T08:21:52;16.67;;;8.03;;
3423;SDS011;72707;50.120;8.500;2023-10-13T08:24:22;16.40;;;8.13;;
3423;SDS011;72707;50.120;8.500;2023-10-13T08:27:11;18.30;;;7.80;;
3423;SDS011;72707;50.120;8.500;2023-10-13T08:29:57;14.90;;;6.03;;
3423;SDS011;72707;50.120;8.500;2023-10-13T08:32:26;17.00;;;5.85;;
3423;SDS011;72707;50.120;8.500;2023-10-13T08:35:02;16.03;;;5.97;;
3423;SDS011;72707;50.120;8.500;2023-10-13T08:37:29;19.23;;;5.70;;
3423;SDS011;72707;50.120;8.500;2023-10-13T08:40:12;18.03;;;5.57;;
3423;SDS011;72707;50.120;8.500;2023-10-13T08:43:05;17.83;;;5.80;;
3423;SDS011;72707;50.120;8.500;2023-10-13T08:45:30;10.47;;;4.83;;
3423;SDS011;72707;50.120;8.500;2023-10-13T08:48:00;17.30;;;5.63;;
3423;SDS011;72707;50.120;8.500;2023-10-13T08:50:33;16.60;;;6.00;;
3423;SDS011;72707;50.120;8.500;2023-10-13T08:53:13;17.97;;;6.43;;
3423;SDS011;72707;50.120;8.500;2023-10-13T08:55:58;12.73;;;5.67;;
3423;SDS011;72707;50.120;8.500;2023-10-13T08:58:34;16.87;;;5.80;;
3423;SDS011;72707;50.120;8.500;2023-10-13T09:01:18;13.52;;;5.88;;
3423;SDS011;72707;50.120;8.500;2023-10-13T09:04:10;13.07;;;5.97;;
3423;SDS011;72707;50.120;8.500;2023-10-13T09:06:53;12.17;;;5.17;;
3423;SDS011;72707;50.120;8.500;2023-10-13T09:09:45;14.02;;;5.15;;
3423;SDS011;72707;50.120;8.500;2023-10-13T09:12:11;14.67;;;6.37;;
3423;SDS011;72707;50.120;8.500;2023-10-13T09:14:54;14.20;;;6.43;;
3423;SDS011;72707;50.120;8.500;2023-10-13T09:17:26;16.58;;;6.63;;
3423;SDS011;72707;50.120;8.500;2023-10-13T09:20:04;24.08;;;8.23;;
3423;SDS011;72707;50.120;8.500;2023-10-13T09:22:46;17.27;;;7.00;;
3423;SDS011;72707;50.120;8.500;2023-10-13T09:25:28;17.90;;;7.07;;
3423;SDS011;72707;50.120;8.500;2023-10-13T09:27:59;16.75;;;6.25;;
3423;SDS011;72707;50.120;8.500;2023-10-13T09:30:25;15.48;;;6.45;;
3423;SDS011;72707;50.120;8.500;2023-10-13T09:33:00;16.05;;;6.93;;
3423;SDS011;72707;50.120;8.500;2023-10-13T09:35:26;13.43;;;6.43;;
3423;SDS011;72707;50.120;8.500;2023-10-13T09:37:53;12.63;;;5.85;;
3423;SDS011;72707;50.120;8.500;2023-10-13T09:40:22;14.32;;;5.50;;
3423;SDS011;72707;50.120;8.500;2023-10-13T09:43:11;12.37;;;5.53;;
3423;SDS011;72707;50.120;8.500;2023-10-13T09:45:40;14.90;;;6.03;;
3423;SDS011;72707;50.120;8.500;2023-10-13T09:48:22;15.85;;;6.22;;
3423;SDS011;72707;50.120;8.500;2023-10-13T09:50:57;18.33;;;7.35;;
3423;SDS011;72707;50.120;8.500;2023-10-13T09:53:25;14.93;;;6.38;;
3423;SDS011;72707;50.120;8.500;2023-10-13T09:55:54;13.00;;;6.32;;
3423;SDS011;72707;50.120;8.500;2023-10-13T09:58:41;14.07;;;6.63;;
3423;SDS011;72707;50.120;8.500;2023-10-13T10:01:17;15.25;;;5.90;;
3423;SDS011;72707;50.120;8.500;2023-10-13T10:03:56;13.82;;;6.13;;
3423;SDS011;72707;50.120;8.500;2023-10-13T10:06:57;15.48;;;6.57;;
3423;SDS011;72707;50.120;8.500;2023-10-13T10:09:29;9.68;;;5.10;;
3423;SDS011;72707;50.120;8.500;2023-10-13T10:15:02;10.90;;;5.38;;
3423;SDS011;72707;50.120;8.500;2023-10-13T10:17:45;15.20;;;5.55;;
3423;SDS011;72707;50.120;8.500;2023-10-13T10:20:11;14.68;;;5.70;;
3423;SDS011;72707;50.120;8.500;2023-10-13T10:22:54;12.20;;;5.43;;
3423;SDS011;72707;50.120;8.500;2023-10-13T10:25:28;16.17;;;6.22;;
3423;SDS011;72707;50.120;8.500;2023-10-13T10:28:01;12.93;;;5.55;;
3423;SDS011;72707;50.120;8.500;2023-10-13T10:30:31;11.38;;;5.50;;
3423;SDS011;72707;50.120;8.500;2023-10-13T10:32:59;15.13;;;6.15;;
3423;SDS011;72707;50.120;8.500;2023-10-13T10:35:26;10.02;;;5.53;;
3423;SDS011;72707;50.120;8.500;2023-10-13T10:37:57;13.48;;;5.93;;
3423;SDS011;72707;50.120;8.500;2023-10-13T10:40:36;15.95;;;6.10;;
3423;SDS011;72707;50.120;8.500;2023-10-13T10:43:35;11.20;;;5.55;;
3423;SDS011;72707;50.120;8.500;2023-10-13T10:46:12;13.52;;;5.90;;
3423;SDS011;72707;50.120;8.500;2023-10-13T10:48:39;15.93;;;6.07;;
3423;SDS011;72707;50.120;8.500;2023-10-13T10:51:14;12.82;;;5.43;;
3423;SDS011;72707;50.120;8.500;2023-10-13T10:53:40;13.77;;;5.13;;
3423;SDS011;72707;50.120;8.500;2023-10-13T10:56:10;14.02;;;5.78;;
3423;SDS011;72707;50.120;8.500;2023-10-13T10:58:48;12.75;;;6.68;;
3423;SDS011;72707;50.120;8.500;2023-10-13T11:01:24;12.85;;;5.53;;
3423;SDS011;72707;50.120;8.500;2023-10-13T11:03:59;14.38;;;6.10;;
3423;SDS011;72707;50.120;8.500;2023-10-13T11:06:33;14.60;;;5.47;;
3423;SDS011;72707;50.120;8.500;2023-10-13T11:09:07;15.02;;;5.95;;
3423;SDS011;72707;50.120;8.500;2023-10-13T11:11:51;13.18;;;5.88;;
3423;SDS011;72707;50.120;8.500;2023-10-13T11:14:23;13.65;;;5.47;;
3423;SDS011;72707;50.120;8.500;2023-10-13T11:16:53;14.27;;;6.60;;
3423;SDS011;72707;50.120;8.500;2023-10-13T11:19:35;15.82;;;6.20;;
3423;SDS011;72707;50.120;8.500;2023-10-13T11:22:16;15.20;;;6.03;;
3423;SDS011;72707;50.120;8.500;2023-10-13T11:24:57;12.65;;;6.00;;
3423;SDS011;72707;50.120;8.500;2023-10-13T11:27:28;14.52;;;5.68;;
3423;SDS011;72707;50.120;8.500;2023-10-13T11:30:15;17.17;;;6.32;;
3423;SDS011;72707;50.120;8.500;2023-10-13T11:35:25;11.40;;;5.00;;
3423;SDS011;72707;50.120;8.500;2023-10-13T11:37:54;14.30;;;5.60;;
3423;SDS011;72707;50.120;8.500;2023-10-13T11:40:28;10.15;;;4.95;;
3423;SDS011;72707;50.120;8.500;2023-10-13T11:43:13;10.75;;;5.05;;
3423;SDS011;72707;50.120;8.500;2023-10-13T11:45:47;8.38;;;4.70;;
3423;SDS011;72707;50.120;8.500;2023-10-13T11:48:32;10.10;;;4.68;;
3423;SDS011;72707;50.120;8.500;2023-10-13T11:51:05;14.65;;;6.75;;
3423;SDS011;72707;50.120;8.500;2023-10-13T11:53:33;10.50;;;5.80;;
3423;SDS011;72707;50.120;8.500;2023-10-13T11:56:00;14.77;;;6.22;;
3423;SDS011;72707;50.120;8.500;2023-10-13T11:58:38;13.63;;;5.78;;
3423;SDS011;72707;50.120;8.500;2023-10-13T12:01:04;12.20;;;5.63;;
3423;SDS011;72707;50.120;8.500;2023-10-13T12:03:33;13.70;;;6.22;;
3423;SDS011;72707;50.120;8.500;2023-10-13T12:06:18;10.60;;;4.93;;
3423;SDS011;72707;50.120;8.500;2023-10-13T12:09:06;10.13;;;4.93;;
3423;SDS011;72707;50.120;8.500;2023-10-13T12:11:41;9.52;;;5.10;;
3423;SDS011;72707;50.120;8.500;2023-10-13T12:14:13;13.05;;;5.35;;
3423;SDS011;72707;50.120;8.500;2023-10-13T12:16:44;13.98;;;5.38;;
3423;SDS011;72707;50.120;8.500;2023-10-13T12:19:16;14.98;;;6.25;;
3423;SDS011;72707;50.120;8.500;2023-10-13T12:21:43;12.63;;;5.13;;
3423;SDS011;72707;50.120;8.500;2023-10-13T12:24:09;12.50;;;5.45;;
3423;SDS011;72707;50.120;8.500;2023-10-13T12:26:47;12.73;;;5.32;;
3423;SDS011;72707;50.120;8.500;2023-10-13T12:29:13;13.20;;;5.30;;
3423;SDS011;72707;50.120;8.500;2023-10-13T12:31:47;10.18;;;5.15;;
3423;SDS011;72707;50.120;8.500;2023-10-13T12:34:26;14.63;;;5.65;;
3423;SDS011;72707;50.120;8.500;2023-10-13T12:37:12;12.80;;;5.78;;
3423;SDS011;72707;50.120;8.500;2023-10-13T12:39:57;13.98;;;5.70;;
3423;SDS011;72707;50.120;8.500;2023-10-13T12:42:41;15.52;;;5.72;;
3423;SDS011;72707;50.120;8.500;2023-10-13T12:45:25;15.15;;;6.70;;
3423;SDS011;72707;50.120;8.500;2023-10-13T12:48:09;15.85;;;6.05;;
3423;SDS011;72707;50.120;8.500;2023-10-13T12:50:53;11.55;;;4.93;;
3423;SDS011;72707;50.120;8.500;2023-10-13T12:53:32;14.23;;;5.78;;
3423;SDS011;72707;50.120;8.500;2023-10-13T12:55:59;13.82;;;5.85;;
3423;SDS011;72707;50.120;8.500;2023-10-13T12:58:28;10.55;;;5.18;;
3423;SDS011;72707;50.120;8.500;2023-10-13T13:00:59;8.15;;;4.70;;
3423;SDS011;72707;50.120;8.500;2023-10-13T13:03:31;18.17;;;7.03;;
3423;SDS011;72707;50.120;8.500;2023-10-13T13:05:57;19.38;;;7.40;;
3423;SDS011;72707;50.120;8.500;2023-10-13T13:08:23;13.80;;;5.50;;
3423;SDS011;72707;50.120;8.500;2023-10-13T13:10:49;11.25;;;5.18;;
3423;SDS011;72707;50.120;8.500;2023-10-13T13:13:15;16.10;;;5.43;;
3423;SDS011;72707;50.120;8.500;2023-10-13T13:15:49;13.50;;;5.00;;
3423;SDS011;72707;50.120;8.500;2023-10-13T13:18:15;12.77;;;6.10;;
3423;SDS011;72707;50.120;8.500;2023-10-13T13:20:40;10.20;;;4.88;;
3423;SDS011;72707;50.120;8.500;2023-10-13T13:23:18;13.98;;;5.68;;
3423;SDS011;72707;50.120;8.500;2023-10-13T13:25:44;10.10;;;4.82;;
3423;SDS011;72707;50.120;8.500;2023-10-13T13:28:10;12.75;;;4.75;;
3423;SDS011;72707;50.120;8.500;2023-10-13T13:30:37;11.80;;;4.90;;
3423;SDS011;72707;50.120;8.500;2023-10-13T13:33:05;11.13;;;4.88;;
3423;SDS011;72707;50.120;8.500;2023-10-13T13:35:38;13.93;;;5.03;;
3423;SDS011;72707;50.120;8.500;2023-10-13T13:38:04;20.38;;;6.57;;
3423;SDS011;72707;50.120;8.500;2023-10-13T13:40:41;15.32;;;5.32;;
3423;SDS011;72707;50.120;8.500;2023-10-13T13:43:13;16.92;;;5.65;;
3423;SDS011;72707;50.120;8.500;2023-10-13T13:45:56;12.05;;;4.65;;
3423;SDS011;72707;50.120;8.500;2023-10-13T13:48:25;11.00;;;4.40;;
3423;SDS011;72707;50.120;8.500;2023-10-13T13:50:52;8.75;;;4.35;;
3423;SDS011;72707;50.120;8.500;2023-10-13T13:53:28;10.35;;;4.43;;
3423;SDS011;72707;50.120;8.500;2023-10-13T13:55:59;9.98;;;4.88;;
3423;SDS011;72707;50.120;8.500;2023-10-13T13:58:28;12.52;;;5.13;;
3423;SDS011;72707;50.120;8.500;2023-10-13T14:00:59;12.80;;;5.43;;
3423;SDS011;72707;50.120;8.500;2023-10-13T14:03:44;11.95;;;4.65;;
3423;SDS011;72707;50.120;8.500;2023-10-13T14:06:11;13.30;;;5.28;;
3423;SDS011;72707;50.120;8.500;2023-10-13T14:08:48;12.68;;;4.70;;
3423;SDS011;72707;50.120;8.500;2023-10-13T14:11:15;12.10;;;5.30;;
3423;SDS011;72707;50.120;8.500;2023-10-13T14:14:08;11.13;;;5.03;;
3423;SDS011;72707;50.120;8.500;2023-10-13T14:16:49;11.77;;;5.15;;
3423;SDS011;72707;50.120;8.500;2023-10-13T14:19:15;12.27;;;5.32;;
3423;SDS011;72707;50.120;8.500;2023-10-13T14:21:51;15.18;;;5.43;;
3423;SDS011;72707;50.120;8.500;2023-10-13T14:24:20;12.57;;;5.10;;
3423;SDS011;72707;50.120;8.500;2023-10-13T14:26:59;14.48;;;5.28;;
3423;SDS011;72707;50.120;8.500;2023-10-13T14:29:42;11.65;;;4.55;;
3423;SDS011;72707;50.120;8.500;2023-10-13T14:32:09;10.13;;;4.53;;
3423;SDS011;72707;50.120;8.500;2023-10-13T14:34:40;14.43;;;5.28;;
3423;SDS011;72707;50.120;8.500;2023-10-13T14:37:06;17.80;;;5.88;;
3423;SDS011;72707;50.120;8.500;2023-10-13T14:39:33;12.93;;;5.03;;
3423;SDS011;72707;50.120;8.500;2023-10-13T14:42:03;10.75;;;5.07;;
3423;SDS011;72707;50.120;8.500;2023-10-13T14:44:31;11.65;;;5.30;;
3423;SDS011;72707;50.120;8.500;2023-10-13T14:46:57;12.07;;;5.13;;
3423;SDS011;72707;50.120;8.500;2023-10-13T14:49:22;13.75;;;5.38;;
3423;SDS011;72707;50.120;8.500;2023-10-13T14:51:48;12.35;;;5.32;;
3423;SDS011;72707;50.120;8.500;2023-10-13T14:54:15;10.38;;;3.92;;
3423;SDS011;72707;50.120;8.500;2023-10-13T14:56:41;10.65;;;4.40;;
3423;SDS011;72707;50.120;8.500;2023-10-13T14:59:07;14.77;;;5.50;;
3423;SDS011;72707;50.120;8.500;2023-10-13T15:01:39;12.15;;;4.05;;
3423;SDS011;72707;50.120;8.500;2023-10-13T15:04:05;15.60;;;4.82;;
3423;SDS011;72707;50.120;8.500;2023-10-13T15:06:31;11.38;;;4.65;;
3423;SDS011;72707;50.120;8.500;2023-10-13T15:08:57;11.82;;;5.25;;
3423;SDS011;72707;50.120;8.500;2023-10-13T15:11:25;11.48;;;4.70;;
3423;SDS011;72707;50.120;8.500;2023-10-13T15:14:05;9.38;;;4.75;;
3423;SDS011;72707;50.120;8.500;2023-10-13T15:16:34;12.00;;;5.72;;
3423;SDS011;72707;50.120;8.500;2023-10-13T15:18:59;10.25;;;4.60;;
3423;SDS011;72707;50.120;8.500;2023-10-13T15:21:26;11.25;;;4.20;;
3423;SDS011;72707;50.120;8.500;2023-10-13T15:23:59;14.48;;;4.65;;
3423;SDS011;72707;50.120;8.500;2023-10-13T15:26:38;8.85;;;4.07;;
3423;SDS011;72707;50.120;8.500;2023-10-13T15:29:06;11.60;;;5.18;;
3423;SDS011;72707;50.120;8.500;2023-10-13T15:31:37;10.13;;;4.75;;
3423;SDS011;72707;50.120;8.500;2023-10-13T15:34:11;10.20;;;4.45;;
3423;SDS011;72707;50.120;8.500;2023-10-13T15:36:41;8.65;;;3.78;;
3423;SDS011;72707;50.120;8.500;2023-10-13T15:39:08;14.70;;;4.38;;
3423;SDS011;72707;50.120;8.500;2023-10-13T15:41:35;11.00;;;4.40;;